ADDS METAR Data INFO
IDs: Format: Raw Decoded Include TAF

Data at: 0029 UTC 15 Dec 2017

KMYZ 150015Z AUTO 33007KT 10SM -RA SCT012 BKN030 OVC080 02/01 A3012 RMK AO2
KMYZ 142355Z AUTO 33007KT 10SM DZ BKN012 BKN023 OVC080 02/01 A3011 RMK AO2
KMYZ 142335Z AUTO 33009KT 10SM RA SCT014 SCT031 OVC070 03/01 A3010 RMK AO2
KMYZ 142315Z AUTO 33008KT 10SM RA BKN070 OVC080 03/01 A3010 RMK AO2
KMYZ 142255Z AUTO 33011KT 10SM RA SCT023 BKN060 OVC070 03/01 A3009 RMK AO2
KMYZ 142235Z AUTO 33011KT 10SM -RA BKN025 BKN033 OVC055 04/01 A3009 RMK AO2
KMYZ 142215Z AUTO 34010G15KT 10SM -RA SCT025 BKN035 OVC065 05/00 A3008 RMK AO2
KMYZ 142155Z AUTO 33012KT 10SM SCT033 SCT041 OVC065 05/00 A3007 RMK AO2
KMYZ 142135Z AUTO 34012KT 10SM SCT033 BKN044 OVC085 06/00 A3007 RMK AO2
KMYZ 142115Z AUTO 32011KT 10SM SCT037 BKN070 OVC085 06/M01 A3007 RMK AO2
KMYZ 142055Z AUTO 31013KT 10SM BKN037 BKN045 OVC085 06/M01 A3006 RMK AO2
KMYZ 142035Z AUTO 30007G16KT 10SM SCT042 OVC100 07/M02 A3006 RMK AO2
KMYZ 142015Z AUTO 32008KT 10SM SCT042 OVC100 07/M02 A3006 RMK AO2
KMYZ 141955Z AUTO 31008KT 10SM SCT042 OVC100 07/M02 A3006 RMK AO2
KMYZ 141935Z AUTO 30007KT 10SM SCT042 OVC100 07/M03 A3006 RMK AO2
KMYZ 141915Z AUTO 32009KT 10SM BKN110 06/M03 A3007 RMK AO2
KMYZ 141855Z AUTO 31009KT 10SM SCT110 07/M02 A3006 RMK AO2
KMYZ 141835Z AUTO 31009KT 10SM SCT110 06/M03 A3007 RMK AO2
KMYZ 141815Z AUTO 33009KT 10SM SCT120 07/M03 A3007 RMK AO2
KMYZ 141755Z AUTO 33009KT 10SM SCT120 06/M03 A3008 RMK AO2
KMYZ 141735Z AUTO 33009KT 10SM CLR 06/M03 A3009 RMK AO2
KMYZ 141715Z AUTO 31007KT 10SM CLR 06/M02 A3010 RMK AO2
KMYZ 141655Z AUTO 31006KT 10SM CLR 05/M02 A3011 RMK AO2
KMYZ 141635Z AUTO 31006KT 10SM SCT042 03/M02 A3011 RMK AO2
KMYZ 141615Z AUTO 32007KT 10SM OVC042 03/M02 A3010 RMK AO2
KMYZ 141555Z AUTO 30008KT 10SM OVC044 03/M02 A3010 RMK AO2
KMYZ 141535Z AUTO 30006KT 10SM OVC044 02/M02 A3010 RMK AO2
KMYZ 141515Z AUTO 30008KT 10SM OVC046 02/M02 A3010 RMK AO2
KMYZ 141455Z AUTO 29004KT 10SM OVC046 02/M02 A3010 RMK AO2
KMYZ 141435Z AUTO 30004KT 10SM OVC046 01/M02 A3009 RMK AO2
KMYZ 141415Z AUTO 32005KT 10SM OVC046 01/M02 A3009 RMK AO2
KMYZ 141355Z AUTO 31005KT 10SM OVC046 01/M02 A3009 RMK AO2
KMYZ 141335Z AUTO 30006KT 10SM OVC046 01/M03 A3008 RMK AO2
KMYZ 141315Z AUTO 31006KT 10SM OVC042 01/M03 A3007 RMK AO2
KMYZ 141255Z AUTO 32007KT 10SM OVC042 02/M03 A3007 RMK AO2
KMYZ 141235Z AUTO 33005KT 10SM OVC042 02/M03 A3007 RMK AO2
KMYZ 141215Z AUTO 32006KT 10SM OVC040 02/M03 A3007 RMK AO2
KMYZ 141155Z AUTO 33009KT 10SM OVC040 02/M03 A3006 RMK AO2
KMYZ 141135Z AUTO 32008KT 10SM OVC036 02/M02 A3006 RMK AO2
KMYZ 141115Z AUTO 32008KT 10SM OVC034 02/M02 A3005 RMK AO2
KMYZ 141055Z AUTO 32009KT 10SM OVC036 02/M02 A3005 RMK AO2
KMYZ 141035Z AUTO 31007KT 10SM OVC036 01/M02 A3005 RMK AO2
KMYZ 141015Z AUTO 32007KT 10SM OVC036 01/M02 A3004 RMK AO2
KMYZ 140955Z AUTO 31007KT 10SM OVC038 01/M02 A3003 RMK AO2
KMYZ 140935Z AUTO 32007KT 10SM OVC036 01/M02 A3004 RMK AO2
KMYZ 140915Z AUTO 32008KT 10SM OVC038 02/M02 A3004 RMK AO2
KMYZ 140855Z AUTO 32008KT 10SM OVC038 01/M02 A3005 RMK AO2
KMYZ 140835Z AUTO 32008KT 10SM OVC038 02/M02 A3004 RMK AO2
KMYZ 140815Z AUTO 32011KT 10SM OVC038 01/M02 A3003 RMK AO2
KMYZ 140755Z AUTO 33008KT 10SM OVC038 01/M02 A3002 RMK AO2
KMYZ 140735Z AUTO 33011KT 10SM OVC038 01/M02 A3002 RMK AO2
KMYZ 140715Z AUTO 33009KT 10SM OVC038 00/M02 A3002 RMK AO2
KMYZ 140655Z AUTO 33009KT 10SM OVC040 00/M02 A3001 RMK AO2
KMYZ 140635Z AUTO 33004KT 10SM OVC040 00/M03 A3001 RMK AO2
KMYZ 140615Z AUTO 33003KT 10SM BKN040 00/M03 A3000 RMK AO2
KMYZ 140555Z AUTO 34003KT 10SM SCT040 SCT045 00/M03 A3001 RMK AO2
KMYZ 140535Z AUTO 33004KT 10SM BKN047 00/M02 A3001 RMK AO2
KMYZ 140515Z AUTO 00000KT 10SM SCT049 00/M03 A3002 RMK AO2
KMYZ 140455Z AUTO 29003KT 10SM CLR M01/M03 A3001 RMK AO2
KMYZ 140435Z AUTO 32004KT 10SM CLR M01/M03 A3000 RMK AO2
KMYZ 140415Z AUTO 31003KT 10SM CLR 00/M03 A2999 RMK AO2
KMYZ 140355Z AUTO 00000KT 10SM CLR 00/M03 A2998 RMK AO2
KMYZ 140335Z AUTO 00000KT 10SM CLR 00/M03 A2998 RMK AO2
KMYZ 140315Z AUTO 02004KT 10SM CLR 00/M03 A2997 RMK AO2
KMYZ 140255Z AUTO 02005KT 10SM CLR 01/M03 A2997 RMK AO2
KMYZ 140235Z AUTO 02006KT 10SM CLR 02/M03 A2996 RMK AO2
KMYZ 140215Z AUTO 01006KT 10SM CLR 02/M03 A2995 RMK AO2
KMYZ 140155Z AUTO 32006KT 10SM CLR 02/M03 A2994 RMK AO2
KMYZ 140135Z AUTO 33009KT 10SM CLR 03/M03 A2993 RMK AO2
KMYZ 140115Z AUTO 31005KT 10SM CLR 04/M02 A2993 RMK AO2
KMYZ 140055Z AUTO 32008KT 10SM CLR 05/M02 A2992 RMK AO2
KMYZ 140035Z AUTO 33009KT 10SM CLR 05/M02 A2990 RMK AO2
KMYZ 140015Z AUTO 33009KT 10SM CLR 06/M02 A2989 RMK AO2
KMYZ 132355Z AUTO 33009KT 10SM CLR 06/M02 A2988 RMK AO2
KMYZ 132335Z AUTO 33008KT 10SM CLR 07/M02 A2988 RMK AO2
KMYZ 132315Z AUTO 33009KT 10SM CLR 08/M02 A2987 RMK AO2
KMYZ 132255Z AUTO 33011KT 10SM CLR 09/M02 A2986 RMK AO2
KMYZ 132235Z AUTO 33014G19KT 10SM CLR 10/M02 A2985 RMK AO2
KMYZ 132215Z AUTO 34017G21KT 10SM CLR 11/M02 A2984 RMK AO2
KMYZ 132155Z AUTO 33018G24KT 10SM CLR 12/M02 A2983 RMK AO2
KMYZ 132135Z AUTO 34018KT 10SM CLR 12/M02 A2984 RMK AO2
KMYZ 132115Z AUTO 33021G29KT 10SM CLR 12/M02 A2984 RMK AO2
KMYZ 132055Z AUTO 33021G28KT 10SM CLR 13/M02 A2983 RMK AO2
KMYZ 132035Z AUTO 34021G31KT 10SM CLR 13/M02 A2983 RMK AO2
KMYZ 132015Z AUTO 33016G27KT 10SM CLR 13/M02 A2982 RMK AO2
KMYZ 131955Z AUTO 32018G27KT 10SM CLR 13/M02 A2982 RMK AO2
KMYZ 131935Z AUTO 33023G28KT 10SM CLR 13/M02 A2982 RMK AO2
KMYZ 131915Z AUTO 33022G30KT 10SM CLR 13/M02 A2982 RMK AO2
KMYZ 131855Z AUTO 33024G31KT 10SM CLR 13/M03 A2982 RMK AO2
KMYZ 131835Z AUTO 33025G30KT 10SM CLR 13/M03 A2982 RMK AO2
KMYZ 131815Z AUTO 33027G34KT 10SM CLR 13/M03 A2982 RMK AO2
KMYZ 131755Z AUTO 33027G36KT 10SM CLR 13/M03 A2983 RMK AO2
KMYZ 131735Z AUTO 34026G31KT 10SM CLR 13/M03 A2983 RMK AO2
KMYZ 131715Z AUTO 33023G31KT 10SM CLR 13/M02 A2983 RMK AO2
KMYZ 131655Z AUTO 33022G35KT 10SM CLR 13/M02 A2984 RMK AO2
KMYZ 131635Z AUTO 33030G38KT 10SM CLR 12/M02 A2984 RMK AO2
KMYZ 131615Z AUTO 34026G34KT 10SM CLR 12/M03 A2983 RMK AO2
KMYZ 131555Z AUTO 33026G38KT 10SM CLR 12/M03 A2982 RMK AO2
KMYZ 131535Z AUTO 33023G32KT 10SM CLR 12/M03 A2982 RMK AO2
KMYZ 131515Z AUTO 33026G30KT 10SM CLR 12/M04 A2980 RMK AO2
KMYZ 131455Z AUTO 32022G33KT 10SM CLR 12/M05 A2979 RMK AO2
KMYZ 131435Z AUTO 32018G23KT 10SM CLR 11/M05 A2979 RMK AO2
KMYZ 131415Z AUTO 32020G28KT 10SM CLR 11/M05 A2977 RMK AO2
KMYZ 131355Z AUTO 31015G18KT 10SM CLR 11/M05 A2977 RMK AO2
KMYZ 131335Z AUTO 32009KT 10SM CLR 10/M04 A2977 RMK AO2
KMYZ 131315Z AUTO 32013G16KT 10SM SCT100 09/M04 A2976 RMK AO2
KMYZ 131255Z AUTO 32015G19KT 10SM BKN100 08/M04 A2975 RMK AO2
KMYZ 131235Z AUTO 32009KT 10SM BKN100 06/M04 A2974 RMK AO2